createdAt,value
2022-08-23T00:02:27.023Z,100.00
2022-08-23T00:05:08.976Z,100.00
2022-08-23T00:07:39.101Z,100.00
2022-08-23T00:10:08.063Z,100.00
2022-08-23T00:12:34.784Z,100.00
2022-08-23T00:15:01.189Z,100.00
2022-08-23T00:17:33.225Z,100.00
2022-08-23T00:20:02.307Z,100.00
2022-08-23T00:22:28.700Z,100.00
2022-08-23T00:24:55.121Z,100.00
2022-08-23T00:27:21.519Z,100.00
2022-08-23T00:29:49.744Z,100.00
2022-08-23T00:32:22.151Z,100.00
2022-08-23T00:34:49.116Z,100.00
2022-08-23T00:37:16.110Z,100.00
2022-08-23T00:39:42.625Z,100.00
2022-08-23T00:42:32.694Z,100.00
2022-08-23T00:45:21.722Z,100.00
2022-08-23T00:47:50.754Z,100.00
2022-08-23T00:50:26.484Z,100.00
2022-08-23T00:52:56.247Z,100.00
2022-08-23T00:55:23.058Z,100.00
2022-08-23T00:57:49.609Z,100.00
2022-08-23T01:00:16.072Z,100.00
2022-08-23T01:02:44.874Z,100.00
2022-08-23T01:05:12.835Z,100.00
2022-08-23T01:07:49.788Z,100.00
2022-08-23T01:10:28.365Z,100.00
2022-08-23T01:13:09.060Z,100.00
2022-08-23T01:15:43.281Z,100.00
2022-08-23T01:18:11.530Z,100.00
2022-08-23T01:20:46.864Z,100.00
2022-08-23T01:23:27.736Z,100.00
2022-08-23T01:25:54.703Z,100.00
2022-08-23T01:28:21.438Z,100.00
2022-08-23T01:30:48.849Z,100.00
2022-08-23T01:33:15.658Z,100.00
2022-08-23T01:35:47.663Z,100.00
2022-08-23T01:38:14.735Z,100.00
2022-08-23T01:40:41.569Z,100.00
2022-08-23T01:43:09.097Z,100.00
2022-08-23T01:45:36.934Z,100.00
2022-08-23T01:48:06.180Z,100.00
2022-08-23T01:50:33.029Z,100.00
2022-08-23T01:53:00.368Z,100.00
2022-08-23T01:55:27.300Z,100.00
2022-08-23T01:57:57.147Z,100.00
2022-08-23T02:00:26.881Z,100.00
2022-08-23T02:02:53.370Z,100.00
2022-08-23T02:05:20.388Z,100.00
2022-08-23T02:07:47.662Z,100.00
2022-08-23T02:10:14.657Z,100.00
2022-08-23T02:12:41.271Z,100.00
2022-08-23T02:15:08.134Z,100.00
2022-08-23T02:17:34.935Z,100.00
2022-08-23T02:20:02.128Z,100.00
2022-08-23T02:22:28.617Z,100.00
2022-08-23T02:24:55.196Z,100.00
2022-08-23T02:27:21.607Z,100.00
2022-08-23T02:29:48.070Z,100.00
2022-08-23T02:32:18.312Z,100.00
2022-08-23T02:34:51.167Z,100.00
2022-08-23T02:37:31.904Z,100.00
2022-08-23T02:39:58.357Z,100.00
2022-08-23T02:42:24.758Z,100.00
2022-08-23T02:44:51.349Z,100.00
2022-08-23T02:47:18.802Z,100.00
2022-08-23T02:49:46.084Z,100.00
2022-08-23T02:52:12.523Z,100.00
2022-08-23T02:54:39.048Z,100.00
2022-08-23T02:57:06.023Z,100.00
2022-08-23T02:59:32.436Z,100.00
2022-08-23T03:01:59.638Z,100.00
2022-08-23T03:04:26.119Z,100.00
2022-08-23T03:06:52.830Z,100.00
2022-08-23T03:09:19.230Z,100.00
2022-08-23T03:11:49.495Z,100.00
2022-08-23T03:14:16.348Z,100.00
2022-08-23T03:16:42.807Z,100.00
2022-08-23T03:19:09.422Z,100.00
2022-08-23T03:21:35.899Z,100.00
2022-08-23T03:24:06.823Z,100.00
2022-08-23T03:26:36.027Z,100.00
2022-08-23T03:29:03.700Z,100.00
2022-08-23T03:31:30.522Z,100.00
2022-08-23T03:33:58.084Z,100.00
2022-08-23T03:36:27.700Z,100.00
2022-08-23T03:38:54.902Z,100.00
2022-08-23T03:41:21.340Z,100.00
2022-08-23T03:43:47.768Z,100.00
2022-08-23T03:46:22.897Z,100.00
2022-08-23T03:48:59.414Z,100.00
2022-08-23T03:51:28.046Z,100.00
2022-08-23T03:53:54.657Z,100.00
2022-08-23T03:56:27.075Z,100.00
2022-08-23T03:58:57.467Z,100.00
2022-08-23T04:01:28.574Z,100.00
2022-08-23T04:03:55.784Z,100.00
2022-08-23T04:06:22.154Z,100.00
2022-08-23T04:08:48.569Z,100.00
2022-08-23T04:11:15.851Z,100.00
2022-08-23T04:13:42.942Z,100.00
2022-08-23T04:16:09.589Z,100.00
2022-08-23T04:18:36.570Z,100.00
2022-08-23T04:21:07.587Z,100.00
2022-08-23T04:23:33.978Z,100.00
2022-08-23T04:26:00.383Z,100.00
2022-08-23T04:28:28.283Z,100.00
2022-08-23T04:30:55.311Z,100.00
2022-08-23T04:33:22.245Z,100.00
2022-08-23T04:35:48.640Z,100.00
2022-08-23T04:38:18.409Z,100.00
2022-08-23T04:41:11.290Z,100.00
2022-08-23T04:43:38.947Z,100.00
2022-08-23T04:46:05.627Z,100.00
2022-08-23T04:48:33.558Z,100.00
2022-08-23T04:51:00.691Z,100.00
2022-08-23T04:53:29.142Z,100.00
2022-08-23T04:55:55.980Z,100.00
2022-08-23T04:58:22.470Z,100.00
2022-08-23T05:00:51.770Z,100.00
2022-08-23T05:03:18.437Z,100.00
2022-08-23T05:05:44.848Z,100.00
2022-08-23T05:08:11.638Z,100.00
2022-08-23T05:10:38.417Z,100.00
2022-08-23T05:13:04.887Z,100.00
2022-08-23T05:15:31.309Z,100.00
2022-08-23T05:17:57.763Z,100.00
2022-08-23T05:20:24.546Z,100.00
2022-08-23T05:22:50.983Z,100.00
2022-08-23T05:25:17.511Z,100.00
2022-08-23T05:27:44.167Z,100.00
2022-08-23T05:30:15.283Z,100.00
2022-08-23T05:32:42.272Z,100.00
2022-08-23T05:35:09.284Z,100.00
2022-08-23T05:37:35.723Z,100.00
2022-08-23T05:40:02.482Z,100.00
2022-08-23T05:42:28.988Z,100.00
2022-08-23T05:44:55.466Z,100.00
2022-08-23T05:47:24.611Z,100.00
2022-08-23T05:49:51.380Z,100.00
2022-08-23T05:52:17.755Z,100.00
2022-08-23T05:54:44.177Z,100.00
2022-08-23T05:57:11.352Z,100.00
2022-08-23T05:59:37.759Z,100.00
2022-08-23T06:02:04.477Z,100.00
2022-08-23T06:04:31.030Z,100.00
2022-08-23T06:06:58.862Z,100.00
2022-08-23T06:09:26.273Z,100.00
2022-08-23T06:11:53.307Z,100.00
2022-08-23T06:14:19.892Z,100.00
2022-08-23T06:16:50.791Z,100.00
2022-08-23T06:19:19.069Z,100.00
2022-08-23T06:21:45.804Z,100.00
2022-08-23T06:24:12.773Z,100.00
2022-08-23T06:26:42.960Z,100.00
2022-08-23T06:29:12.292Z,100.00
2022-08-23T06:31:48.550Z,100.00
2022-08-23T06:34:24.790Z,100.00
2022-08-23T06:36:58.328Z,100.00
2022-08-23T06:39:27.789Z,100.00
2022-08-23T06:42:02.135Z,100.00
2022-08-23T06:44:29.778Z,100.00
2022-08-23T06:46:57.372Z,100.00
2022-08-23T06:49:25.015Z,100.00
2022-08-23T06:51:53.338Z,100.00
2022-08-23T06:54:23.040Z,100.00
2022-08-23T06:56:54.023Z,100.00
2022-08-23T06:59:21.085Z,100.00
2022-08-23T07:01:59.658Z,100.00
2022-08-23T07:04:34.754Z,100.00
2022-08-23T07:07:02.345Z,100.00
2022-08-23T07:09:30.372Z,100.00
2022-08-23T07:11:57.822Z,100.00
2022-08-23T07:14:25.026Z,100.00
2022-08-23T07:16:54.781Z,100.00
2022-08-23T07:19:28.852Z,100.00
2022-08-23T07:21:56.891Z,95.20
2022-08-23T07:24:23.453Z,86.04
2022-08-23T07:26:52.156Z,85.67
2022-08-23T07:29:20.420Z,87.81
2022-08-23T07:32:06.185Z,79.83
2022-08-23T07:34:33.275Z,80.04
2022-08-23T07:37:01.543Z,78.18
2022-08-23T07:39:28.015Z,82.56
2022-08-23T07:41:54.599Z,85.22
2022-08-23T07:44:21.156Z,86.05
2022-08-23T07:46:53.592Z,84.10
2022-08-23T07:49:20.056Z,87.60
2022-08-23T07:51:49.169Z,78.76
2022-08-23T07:54:16.395Z,75.82
2022-08-23T07:56:43.092Z,77.92
2022-08-23T07:59:10.737Z,77.75
2022-08-23T08:01:38.346Z,72.82
2022-08-23T08:04:06.177Z,71.72
2022-08-23T08:06:46.177Z,67.11
2022-08-23T08:09:14.892Z,67.20
2022-08-23T08:11:44.268Z,67.07
2022-08-23T08:14:11.323Z,62.87
2022-08-23T08:16:44.502Z,65.50
2022-08-23T08:19:13.116Z,64.44
2022-08-23T08:21:42.241Z,63.16
2022-08-23T08:24:11.305Z,60.68
2022-08-23T08:26:37.786Z,61.15
2022-08-23T08:29:05.084Z,58.31
2022-08-23T08:31:31.588Z,59.80
2022-08-23T08:33:58.362Z,60.94
2022-08-23T08:36:42.113Z,58.04
2022-08-23T08:39:13.211Z,58.84
2022-08-23T08:41:48.658Z,55.07
2022-08-23T08:44:41.333Z,55.62
2022-08-23T08:47:17.264Z,57.00
2022-08-23T08:49:53.962Z,57.43
2022-08-23T08:52:25.825Z,58.00
2022-08-23T08:55:09.065Z,53.46
2022-08-23T08:57:43.243Z,54.82
2022-08-23T09:00:18.857Z,54.77
2022-08-23T09:02:46.269Z,52.86
2022-08-23T09:05:20.810Z,54.56
2022-08-23T09:08:31.612Z,54.84
2022-08-23T09:11:27.496Z,51.06
2022-08-23T09:14:44.314Z,49.43
2022-08-23T09:17:37.210Z,48.96
2022-08-23T09:20:06.206Z,48.92
2022-08-23T09:22:47.071Z,48.91
2022-08-23T09:25:16.943Z,46.59
2022-08-23T09:27:45.672Z,48.25
2022-08-23T09:30:16.318Z,50.11
2022-08-23T09:32:45.422Z,51.52
2022-08-23T09:35:19.233Z,51.74
2022-08-23T09:37:59.912Z,52.17
2022-08-23T09:40:33.177Z,49.32
2022-08-23T09:43:07.895Z,49.39
2022-08-23T09:45:37.868Z,51.70
2022-08-23T09:48:06.205Z,51.71
2022-08-23T09:50:39.135Z,51.00
2022-08-23T09:53:11.680Z,50.20
2022-08-23T09:55:41.948Z,50.54
2022-08-23T09:58:36.177Z,48.77
2022-08-23T10:01:14.063Z,49.83
2022-08-23T10:03:42.609Z,51.32
2022-08-23T10:06:11.889Z,54.91
2022-08-23T10:08:51.883Z,48.82
2022-08-23T10:11:32.163Z,46.86
2022-08-23T10:13:58.745Z,45.57
2022-08-23T10:16:39.481Z,43.14
2022-08-23T10:19:18.621Z,44.41
2022-08-23T10:22:23.592Z,41.46
2022-08-23T10:25:00.485Z,46.20
2022-08-23T10:28:14.228Z,43.63
2022-08-23T10:31:25.824Z,43.35
2022-08-23T10:34:13.424Z,42.92
2022-08-23T10:36:58.808Z,42.66
2022-08-23T10:39:28.404Z,41.80
2022-08-23T10:42:07.966Z,39.84
2022-08-23T10:44:40.555Z,41.66
2022-08-23T10:47:32.283Z,38.45
2022-08-23T10:50:03.596Z,39.80
2022-08-23T10:52:36.166Z,38.35
2022-08-23T10:55:17.371Z,40.49
2022-08-23T10:57:47.727Z,40.89
2022-08-23T11:00:22.577Z,41.46
2022-08-23T11:02:59.994Z,41.59
2022-08-23T11:05:30.987Z,41.08
2022-08-23T11:08:03.762Z,40.08
2022-08-23T11:10:55.969Z,39.16
2022-08-23T11:13:27.318Z,40.41
2022-08-23T11:16:15.353Z,38.40
2022-08-23T11:18:48.616Z,39.42
2022-08-23T11:21:17.906Z,38.38
2022-08-23T11:23:54.330Z,38.33
2022-08-23T11:26:27.065Z,40.86
2022-08-23T11:29:22.462Z,41.98
2022-08-23T11:31:59.188Z,37.55
2022-08-23T11:34:30.571Z,36.74
2022-08-23T11:37:18.555Z,36.75
2022-08-23T11:40:00.389Z,36.32
2022-08-23T11:42:46.532Z,38.19
2022-08-23T11:45:28.344Z,36.63
2022-08-23T11:48:19.277Z,35.52
2022-08-23T11:50:50.979Z,38.36
2022-08-23T11:53:54.251Z,38.19
2022-08-23T11:56:56.294Z,37.99
2022-08-23T11:59:52.300Z,38.77
2022-08-23T12:02:47.240Z,38.87
2022-08-23T12:05:21.803Z,36.22
2022-08-23T12:08:20.563Z,35.92
2022-08-23T12:10:46.992Z,34.18
2022-08-23T12:13:19.573Z,34.86
2022-08-23T12:16:04.921Z,34.49
2022-08-23T12:18:36.443Z,33.52
2022-08-23T12:21:05.699Z,32.71
2022-08-23T12:23:47.992Z,33.34
2022-08-23T12:26:40.908Z,32.14
2022-08-23T12:29:23.409Z,35.06
2022-08-23T12:32:11.333Z,34.91
2022-08-23T12:35:30.304Z,32.45
2022-08-23T12:38:22.693Z,31.58
2022-08-23T12:40:54.674Z,32.37
2022-08-23T12:43:27.842Z,31.72
2022-08-23T12:45:57.359Z,32.83
2022-08-23T12:48:26.987Z,31.03
2022-08-23T12:51:14.120Z,33.31
2022-08-23T12:53:45.263Z,33.95
2022-08-23T12:56:18.480Z,33.81
2022-08-23T12:58:51.481Z,34.72
2022-08-23T13:01:22.716Z,33.71
2022-08-23T13:03:56.849Z,34.44
2022-08-23T13:06:28.295Z,36.91
2022-08-23T13:09:01.439Z,39.55
2022-08-23T13:11:32.487Z,37.86
2022-08-23T13:13:58.921Z,39.46
2022-08-23T13:16:45.638Z,36.88
2022-08-23T13:19:26.452Z,34.88
2022-08-23T13:22:32.047Z,33.66
2022-08-23T13:25:28.033Z,35.96
2022-08-23T13:27:57.659Z,34.33
2022-08-23T13:30:36.334Z,32.76
2022-08-23T13:33:07.786Z,32.94
2022-08-23T13:35:49.706Z,34.42
2022-08-23T13:38:31.449Z,31.88
2022-08-23T13:41:02.808Z,32.47
2022-08-23T13:43:43.370Z,33.79
2022-08-23T13:46:22.865Z,34.31
2022-08-23T13:49:09.282Z,35.28
2022-08-23T13:51:41.103Z,36.06
2022-08-23T13:54:17.779Z,33.51
2022-08-23T13:56:51.789Z,32.89
2022-08-23T13:59:31.772Z,32.31
2022-08-23T14:02:05.113Z,35.42
2022-08-23T14:04:32.344Z,31.55
2022-08-23T14:06:58.787Z,33.06
2022-08-23T14:09:25.234Z,32.46
2022-08-23T14:11:57.384Z,34.17
2022-08-23T14:14:24.398Z,34.87
2022-08-23T14:16:50.971Z,32.03
2022-08-23T14:19:54.913Z,31.85
2022-08-23T14:22:07.192Z,31.86
2022-08-23T14:24:33.608Z,32.19
2022-08-23T14:27:01.100Z,36.41
2022-08-23T14:29:30.713Z,36.66
2022-08-23T14:31:59.111Z,32.87
2022-08-23T14:34:27.603Z,36.80
2022-08-23T14:39:40.948Z,33.40
2022-08-23T14:42:08.050Z,35.37
2022-08-23T14:44:35.708Z,36.91
2022-08-23T14:47:03.793Z,37.26
2022-08-23T14:49:30.171Z,42.75
2022-08-23T14:51:56.895Z,36.14
2022-08-23T14:54:26.105Z,40.04
2022-08-23T14:56:53.326Z,38.36
2022-08-23T14:59:20.677Z,40.46
2022-08-23T15:01:48.890Z,42.76
2022-08-23T15:04:22.882Z,44.46
2022-08-23T15:07:16.083Z,41.89
2022-08-23T15:09:38.419Z,43.39
2022-08-23T15:14:52.134Z,41.17
2022-08-23T15:17:18.561Z,38.56
2022-08-23T15:19:44.954Z,39.00
2022-08-23T15:22:18.602Z,38.00
2022-08-23T15:24:48.540Z,40.26
2022-08-23T15:27:14.931Z,38.06
2022-08-23T15:29:41.333Z,38.89
2022-08-23T15:32:07.849Z,36.48
2022-08-23T15:34:37.004Z,39.00
2022-08-23T15:37:06.489Z,36.71
2022-08-23T15:39:35.779Z,38.93
2022-08-23T15:42:02.264Z,38.29
2022-08-23T15:44:28.669Z,39.03
2022-08-23T15:46:55.128Z,35.74
2022-08-23T15:49:23.357Z,35.83
2022-08-23T15:51:49.750Z,38.68
2022-08-23T15:54:16.197Z,36.85
2022-08-23T15:56:46.828Z,37.14
2022-08-23T15:59:15.213Z,36.38
2022-08-23T16:01:41.922Z,36.95
2022-08-23T16:04:08.846Z,38.53
2022-08-23T16:06:36.819Z,41.16
2022-08-23T16:09:06.149Z,37.17
2022-08-23T16:11:32.888Z,36.95
2022-08-23T16:13:59.592Z,37.26
2022-08-23T16:16:30.190Z,40.39
2022-08-23T16:18:58.401Z,40.15
2022-08-23T16:21:27.502Z,41.45
2022-08-23T16:23:55.923Z,43.69
2022-08-23T16:26:34.601Z,43.22
2022-08-23T16:29:04.140Z,42.82
2022-08-23T16:31:38.804Z,42.39
2022-08-23T16:34:09.328Z,43.75
2022-08-23T16:36:36.547Z,43.81
2022-08-23T16:39:04.006Z,45.44
2022-08-23T16:41:30.412Z,43.89
2022-08-23T16:43:56.822Z,46.55
2022-08-23T16:46:24.024Z,52.24
2022-08-23T16:48:50.600Z,52.64
2022-08-23T16:51:17.766Z,53.22
2022-08-23T16:53:44.839Z,54.09
2022-08-23T16:56:29.422Z,55.47
2022-08-23T16:58:56.788Z,56.60
2022-08-23T17:01:23.363Z,52.84
2022-08-23T17:03:50.565Z,53.50
2022-08-23T17:06:17.775Z,57.96
2022-08-23T17:08:45.006Z,56.18
2022-08-23T17:11:19.266Z,58.24
2022-08-23T17:13:49.489Z,59.49
2022-08-23T17:16:15.896Z,60.30
2022-08-23T17:18:42.382Z,62.90
2022-08-23T17:21:09.238Z,63.58
2022-08-23T17:23:37.748Z,63.83
2022-08-23T17:26:08.219Z,60.87
2022-08-23T17:28:35.456Z,59.05
2022-08-23T17:31:01.839Z,58.49
2022-08-23T17:33:28.477Z,59.22
2022-08-23T17:35:54.906Z,65.54
2022-08-23T17:38:21.390Z,60.88
2022-08-23T17:40:48.080Z,63.01
2022-08-23T17:43:14.499Z,67.96
2022-08-23T17:45:46.645Z,63.21
2022-08-23T17:48:14.969Z,69.79
2022-08-23T17:50:43.465Z,64.18
2022-08-23T17:53:11.879Z,63.19
2022-08-23T17:55:39.788Z,62.26
2022-08-23T17:58:08.708Z,63.35
2022-08-23T18:00:38.860Z,67.89
2022-08-23T18:03:06.010Z,65.20
2022-08-23T18:05:33.891Z,66.09
2022-08-23T18:08:00.820Z,69.83
2022-08-23T18:10:29.755Z,68.81
2022-08-23T18:12:57.226Z,68.68
2022-08-23T18:15:24.260Z,76.29
2022-08-23T18:17:50.788Z,78.31
2022-08-23T18:20:21.231Z,77.60
2022-08-23T18:22:48.399Z,79.24
2022-08-23T18:25:16.971Z,80.34
2022-08-23T18:28:03.118Z,82.05
2022-08-23T18:30:30.073Z,74.91
2022-08-23T18:32:57.652Z,77.46
2022-08-23T18:35:30.439Z,80.16
2022-08-23T18:37:57.867Z,78.31
2022-08-23T18:40:25.826Z,79.17
2022-08-23T18:42:52.347Z,80.72
2022-08-23T18:45:19.232Z,81.98
2022-08-23T18:47:48.600Z,82.46
2022-08-23T18:50:15.995Z,82.79
2022-08-23T18:52:42.574Z,78.95
2022-08-23T18:55:09.458Z,82.29
2022-08-23T18:57:35.906Z,84.16
2022-08-23T19:00:04.653Z,85.03
2022-08-23T19:02:31.174Z,85.80
2022-08-23T19:04:57.637Z,85.64
2022-08-23T19:07:24.029Z,83.32
2022-08-23T19:09:50.629Z,82.51
2022-08-23T19:12:17.578Z,81.81
2022-08-23T19:14:44.007Z,82.87
2022-08-23T19:17:10.445Z,83.93
2022-08-23T19:19:36.976Z,83.79
2022-08-23T19:22:04.354Z,88.52
2022-08-23T19:24:31.318Z,91.31
2022-08-23T19:26:57.728Z,91.67
2022-08-23T19:29:24.149Z,94.18
2022-08-23T19:31:50.697Z,93.43
2022-08-23T19:34:19.807Z,93.26
2022-08-23T19:36:51.759Z,93.94
2022-08-23T19:39:26.610Z,93.46
2022-08-23T19:41:53.292Z,99.58
2022-08-23T19:44:20.043Z,100.00
2022-08-23T19:46:46.564Z,100.00
2022-08-23T19:49:14.546Z,100.00
2022-08-23T19:51:42.455Z,100.00
2022-08-23T19:54:11.564Z,100.00
2022-08-23T19:56:38.968Z,100.00
2022-08-23T19:59:08.435Z,100.00
2022-08-23T20:01:36.143Z,100.00
2022-08-23T20:04:02.962Z,100.00
2022-08-23T20:06:31.756Z,100.00
2022-08-23T20:08:58.434Z,100.00
2022-08-23T20:11:24.938Z,100.00
2022-08-23T20:13:53.638Z,100.00
2022-08-23T20:16:20.528Z,100.00
2022-08-23T20:18:47.352Z,100.00
2022-08-23T20:21:14.163Z,100.00
2022-08-23T20:24:03.681Z,100.00
2022-08-23T20:26:30.152Z,100.00
2022-08-23T20:28:59.812Z,100.00
2022-08-23T20:31:30.368Z,100.00
2022-08-23T20:33:56.922Z,100.00
2022-08-23T20:36:24.632Z,100.00
2022-08-23T20:38:51.402Z,100.00
2022-08-23T20:41:17.799Z,100.00
2022-08-23T20:43:47.659Z,100.00
2022-08-23T20:46:14.658Z,100.00
2022-08-23T20:48:41.140Z,100.00
2022-08-23T20:51:08.114Z,100.00
2022-08-23T20:53:35.239Z,100.00
2022-08-23T20:56:02.525Z,100.00
2022-08-23T20:58:29.227Z,100.00
2022-08-23T21:00:55.827Z,100.00
2022-08-23T21:03:23.485Z,100.00
2022-08-23T21:05:50.289Z,100.00
2022-08-23T21:08:17.144Z,100.00
2022-08-23T21:10:45.050Z,100.00
2022-08-23T21:13:12.058Z,100.00
2022-08-23T21:15:38.818Z,100.00
2022-08-23T21:18:05.800Z,100.00
2022-08-23T21:20:32.228Z,100.00
2022-08-23T21:22:58.672Z,100.00
2022-08-23T21:25:25.120Z,100.00
2022-08-23T21:27:51.515Z,100.00
2022-08-23T21:30:17.942Z,100.00
2022-08-23T21:32:44.318Z,100.00
2022-08-23T21:35:11.287Z,100.00
2022-08-23T21:37:38.097Z,100.00
2022-08-23T21:40:05.229Z,100.00
2022-08-23T21:42:31.691Z,100.00
2022-08-23T21:44:58.202Z,100.00
2022-08-23T21:47:24.639Z,100.00
2022-08-23T21:49:51.076Z,100.00
2022-08-23T21:52:17.492Z,100.00
2022-08-23T21:54:43.955Z,100.00
2022-08-23T21:57:10.924Z,100.00
2022-08-23T21:59:37.502Z,100.00
2022-08-23T22:02:04.183Z,100.00
2022-08-23T22:04:30.655Z,100.00
2022-08-23T22:06:58.590Z,100.00
2022-08-23T22:09:31.132Z,100.00
2022-08-23T22:12:00.359Z,100.00
2022-08-23T22:14:31.584Z,100.00
2022-08-23T22:16:58.855Z,100.00
2022-08-23T22:19:25.345Z,100.00
2022-08-23T22:21:52.708Z,100.00
2022-08-23T22:24:25.609Z,100.00
2022-08-23T22:26:54.498Z,100.00
2022-08-23T22:29:21.237Z,100.00
2022-08-23T22:31:48.241Z,100.00
2022-08-23T22:34:14.763Z,100.00
2022-08-23T22:36:41.938Z,100.00
2022-08-23T22:39:08.389Z,100.00
2022-08-23T22:41:35.141Z,100.00
2022-08-23T22:44:03.227Z,100.00
2022-08-23T22:46:31.411Z,100.00
2022-08-23T22:48:58.374Z,100.00
2022-08-23T22:51:29.765Z,100.00
2022-08-23T22:54:02.141Z,100.00
2022-08-23T22:56:37.993Z,100.00
2022-08-23T22:59:04.524Z,100.00
2022-08-23T23:01:34.880Z,100.00
2022-08-23T23:04:04.041Z,100.00
2022-08-23T23:06:31.246Z,100.00
2022-08-23T23:08:57.741Z,100.00
2022-08-23T23:11:26.219Z,100.00
2022-08-23T23:13:53.216Z,100.00
2022-08-23T23:16:22.965Z,100.00
2022-08-23T23:19:08.419Z,100.00
2022-08-23T23:21:38.891Z,100.00
2022-08-23T23:24:05.988Z,100.00
2022-08-23T23:26:32.565Z,100.00
2022-08-23T23:28:58.979Z,100.00
2022-08-23T23:31:25.638Z,100.00
2022-08-23T23:33:52.217Z,100.00
2022-08-23T23:36:18.768Z,100.00
2022-08-23T23:38:46.408Z,100.00
2022-08-23T23:41:13.373Z,100.00
2022-08-23T23:43:40.360Z,100.00
2022-08-23T23:46:11.323Z,100.00
2022-08-23T23:48:43.282Z,100.00
2022-08-23T23:51:13.174Z,100.00
2022-08-23T23:53:39.930Z,100.00
2022-08-23T23:56:10.480Z,100.00
2022-08-23T23:58:37.941Z,100.00
